Quaker Hill, Connecticut
Current Conditions -  °F | °C
As of 10:56 PM on Tuesday 25 Nov 2014 (Local Time) from KGON Reporting Station
Clear Clear  
Wind Chill: 45°   Ceiling: Unl
Heat Index: 49°   Visibility: 9mi
Dew Point: 37°   Wind: 10mph
Humidity: 64%   Direction: 280°W
Pressure: 30.12"   Gusts: NA
Location:  41.4°N, 72.11°W
Report Text: KGON 260356Z AUTO 28009KT 9SM CLR 09/03 A3012 RMK AO2 SLP200 T00940028
Loading
Personal Weather Stations






























Interactive Weather Map New forecast layout! Learn more

10-Day Weather Forecast

Advertisements
Track Severe Weather on mobile